createdAt,value
2022-08-29T00:01:01.664Z,4.90
2022-08-29T01:17:33.450Z,4.57
2022-08-29T01:22:51.777Z,4.28
2022-08-29T01:28:02.723Z,4.85
2022-08-29T01:33:05.564Z,4.68
2022-08-29T01:38:09.599Z,4.75
2022-08-29T01:43:13.628Z,5.13
2022-08-29T01:48:16.543Z,4.28
2022-08-29T01:53:19.373Z,4.22
2022-08-29T01:58:23.382Z,4.10
2022-08-29T02:03:26.110Z,4.50
2022-08-29T02:08:29.095Z,4.43
2022-08-29T02:13:33.379Z,4.10
2022-08-29T02:18:36.219Z,4.45
2022-08-29T02:23:39.649Z,4.95
2022-08-29T02:28:44.181Z,4.43
2022-08-29T02:33:47.110Z,3.83
2022-08-29T02:38:50.582Z,3.97
2022-08-29T02:43:54.615Z,4.18
2022-08-29T02:49:00.962Z,4.80
2022-08-29T02:54:04.928Z,4.95
2022-08-29T02:59:09.636Z,4.47
2022-08-29T03:04:12.327Z,4.70
2022-08-29T03:09:15.052Z,4.75
2022-08-29T03:14:19.110Z,4.22
2022-08-29T03:19:22.868Z,4.50
2022-08-29T03:24:26.414Z,4.65
2022-08-29T03:29:31.230Z,4.45
2022-08-29T03:34:34.286Z,4.68
2022-08-29T03:39:37.837Z,4.70
2022-08-29T03:44:43.421Z,4.28
2022-08-29T03:49:46.141Z,4.32
2022-08-29T03:54:48.941Z,4.40
2022-08-29T03:59:54.259Z,4.43
2022-08-29T04:05:09.809Z,4.18
2022-08-29T04:10:15.425Z,4.72
2022-08-29T04:15:19.742Z,4.63
2022-08-29T04:20:25.246Z,4.65
2022-08-29T04:25:37.109Z,4.57
2022-08-29T04:30:51.482Z,4.63
2022-08-29T04:35:54.846Z,5.15
2022-08-29T04:40:57.529Z,4.85
2022-08-29T04:46:02.121Z,4.97
2022-08-29T04:51:04.972Z,4.82
2022-08-29T04:56:09.881Z,4.80
2022-08-29T05:01:17.170Z,5.18
2022-08-29T05:06:22.716Z,5.07
2022-08-29T05:11:25.481Z,5.10
2022-08-29T05:16:31.663Z,4.65
2022-08-29T05:21:36.893Z,4.45
2022-08-29T05:26:42.924Z,4.60
2022-08-29T05:31:48.463Z,3.85
2022-08-29T05:36:51.153Z,3.72
2022-08-29T05:41:55.765Z,3.58
2022-08-29T05:47:00.169Z,3.45
2022-08-29T05:52:02.998Z,3.90
2022-08-29T05:57:06.498Z,3.33
2022-08-29T06:02:11.493Z,3.88
2022-08-29T06:07:14.826Z,3.50
2022-08-29T06:12:17.596Z,3.10
2022-08-29T06:17:21.608Z,3.30
2022-08-29T06:22:24.306Z,3.63
2022-08-29T06:27:27.043Z,3.22
2022-08-29T06:32:31.061Z,3.35
2022-08-29T06:37:34.327Z,3.42
2022-08-29T06:42:36.997Z,3.55
2022-08-29T06:47:40.998Z,3.67
2022-08-29T06:52:43.856Z,3.53
2022-08-29T06:57:49.916Z,3.72
2022-08-29T07:02:54.218Z,3.92
2022-08-29T07:07:56.966Z,3.65
2022-08-29T07:12:59.635Z,3.75
2022-08-29T07:18:03.780Z,3.88
2022-08-29T07:23:06.472Z,3.20
2022-08-29T07:28:11.702Z,3.55
2022-08-29T07:33:17.398Z,4.10
2022-08-29T07:38:20.080Z,3.20
2022-08-29T07:43:27.388Z,3.40
2022-08-29T07:48:31.863Z,3.60
2022-08-29T07:53:35.176Z,3.65
2022-08-29T07:58:38.564Z,3.67
2022-08-29T08:03:42.623Z,3.17
2022-08-29T08:08:45.788Z,3.00
2022-08-29T08:13:49.157Z,3.40
2022-08-29T08:18:54.821Z,3.13
2022-08-29T08:23:57.499Z,2.97
2022-08-29T08:29:00.935Z,3.10
2022-08-29T08:34:04.930Z,3.03
2022-08-29T08:39:07.632Z,3.60
2022-08-29T08:44:29.934Z,3.58
2022-08-29T08:49:45.304Z,3.40
2022-08-29T08:54:53.174Z,3.30
2022-08-29T08:59:59.387Z,3.38
2022-08-29T09:05:19.456Z,3.80
2022-08-29T09:10:33.951Z,3.17
2022-08-29T09:15:42.104Z,3.15
2022-08-29T09:20:46.163Z,3.10
2022-08-29T09:25:49.289Z,3.35
2022-08-29T09:31:22.569Z,3.63
2022-08-29T09:36:39.516Z,3.72
2022-08-29T09:41:42.798Z,3.10
2022-08-29T09:46:45.490Z,3.42
2022-08-29T09:51:50.440Z,3.08
2022-08-29T09:56:56.867Z,3.00
2022-08-29T10:02:23.140Z,3.70
2022-08-29T10:07:29.817Z,2.92
2022-08-29T10:12:39.077Z,3.20
2022-08-29T10:18:04.813Z,3.40
2022-08-29T10:23:21.295Z,2.85
2022-08-29T10:28:33.357Z,2.85
2022-08-29T10:33:55.128Z,2.70
2022-08-29T10:39:07.616Z,2.80
2022-08-29T10:44:20.269Z,3.42
2022-08-29T10:49:43.026Z,2.92
2022-08-29T10:55:07.278Z,3.08
2022-08-29T11:00:13.534Z,3.15
2022-08-29T11:05:20.114Z,3.00
2022-08-29T11:10:27.798Z,3.17
2022-08-29T11:15:36.323Z,3.17
2022-08-29T11:20:43.703Z,3.00
2022-08-29T11:25:47.933Z,2.65
2022-08-29T11:30:58.405Z,2.83
2022-08-29T11:36:17.388Z,2.92
2022-08-29T11:41:43.999Z,2.42
2022-08-29T11:46:53.596Z,2.20
2022-08-29T11:52:01.910Z,2.47
2022-08-29T11:57:52.629Z,2.50
2022-08-29T12:02:56.880Z,2.55
2022-08-29T12:08:14.500Z,2.38
2022-08-29T12:14:04.614Z,2.20
2022-08-29T12:19:09.985Z,1.90
2022-08-29T12:24:32.494Z,2.20
2022-08-29T12:29:44.743Z,2.30
2022-08-29T12:35:06.080Z,2.20
2022-08-29T12:40:45.649Z,2.30
2022-08-29T12:45:50.176Z,2.00
2022-08-29T12:50:54.753Z,2.17
2022-08-29T12:55:59.969Z,2.58
2022-08-29T13:01:03.775Z,2.20
2022-08-29T13:06:12.050Z,2.10
2022-08-29T13:11:14.808Z,2.17
2022-08-29T13:16:28.943Z,2.50
2022-08-29T13:21:34.442Z,2.20
2022-08-29T13:26:41.337Z,2.20
2022-08-29T13:31:44.348Z,1.92
2022-08-29T13:36:59.139Z,1.90
2022-08-29T13:42:19.435Z,2.10
2022-08-29T13:47:26.037Z,1.95
2022-08-29T13:52:31.557Z,2.20
2022-08-29T13:57:35.225Z,2.35
2022-08-29T14:02:44.694Z,1.90
2022-08-29T14:07:49.122Z,2.20
2022-08-29T14:12:51.878Z,2.05
2022-08-29T14:17:54.635Z,2.28
2022-08-29T14:22:58.772Z,2.25
2022-08-29T14:28:01.461Z,2.20
2022-08-29T14:33:06.616Z,2.42
2022-08-29T14:38:13.165Z,1.90
2022-08-29T14:43:15.949Z,1.92
2022-08-29T14:48:19.270Z,1.77
2022-08-29T14:53:23.410Z,2.00
2022-08-29T14:58:26.431Z,1.80
2022-08-29T15:03:29.137Z,2.00
2022-08-29T15:08:33.120Z,2.00
2022-08-29T15:13:35.796Z,2.05
2022-08-29T15:19:31.231Z,1.60
2022-08-29T15:24:05.198Z,2.00
2022-08-29T15:29:08.902Z,1.90
2022-08-29T15:34:11.598Z,2.05
2022-08-29T15:39:15.692Z,1.92
2022-08-29T15:44:18.493Z,1.83
2022-08-29T15:49:23.827Z,2.10
2022-08-29T15:54:28.640Z,1.75
2022-08-29T15:59:56.575Z,1.75
2022-08-29T16:04:56.982Z,1.88
2022-08-29T16:10:04.560Z,1.80
2022-08-29T16:15:13.132Z,1.80
2022-08-29T16:20:16.067Z,1.80
2022-08-29T16:25:20.432Z,2.10
2022-08-29T16:30:23.167Z,1.83
2022-08-29T16:35:26.041Z,1.75
2022-08-29T16:40:30.155Z,1.58
2022-08-29T16:45:33.522Z,1.95
2022-08-29T16:50:36.512Z,2.00
2022-08-29T16:55:40.553Z,1.70
2022-08-29T17:00:44.624Z,1.90
2022-08-29T17:05:47.333Z,2.25
2022-08-29T17:10:50.676Z,2.20
2022-08-29T17:15:52.518Z,2.17
2022-08-29T17:20:56.155Z,2.20
2022-08-29T17:26:01.597Z,2.25
2022-08-29T17:31:05.408Z,2.35
2022-08-29T17:36:11.026Z,2.55
2022-08-29T17:41:17.367Z,2.78
2022-08-29T17:46:21.834Z,2.10
2022-08-29T17:51:24.974Z,2.30
2022-08-29T17:56:41.955Z,2.40
2022-08-29T18:01:48.449Z,2.30
2022-08-29T18:06:51.837Z,2.90
2022-08-29T18:11:58.212Z,3.30
2022-08-29T18:17:00.993Z,2.78
2022-08-29T18:22:03.957Z,3.17
2022-08-29T18:27:07.984Z,3.10
2022-08-29T18:32:11.670Z,3.45
2022-08-29T18:37:14.533Z,3.15
2022-08-29T18:42:38.859Z,3.00
2022-08-29T18:47:42.411Z,3.25
2022-08-29T18:52:45.931Z,2.78
2022-08-29T18:57:51.354Z,3.60
2022-08-29T19:02:54.741Z,3.50
2022-08-29T19:08:04.784Z,3.05
2022-08-29T19:13:10.261Z,3.10
2022-08-29T19:19:25.628Z,3.53
2022-08-29T19:25:00.163Z,3.30
2022-08-29T19:30:41.490Z,3.10
2022-08-29T19:43:47.873Z,4.43
2022-08-29T20:16:16.897Z,4.30
2022-08-29T20:22:33.650Z,4.60
2022-08-29T20:27:34.390Z,4.18
2022-08-29T21:12:04.363Z,4.45
2022-08-29T22:33:22.473Z,4.05
2022-08-29T22:51:42.027Z,4.18
2022-08-29T23:30:38.909Z,5.07
2022-08-29T23:55:55.289Z,4.70
